Time;durP1;ratioP1;P1;durP2;ratioP2;P2;SDS_P1;SDS_P2;PMS_P1;PMS_P2;Temp;Humidity;BMP_temperature;BMP_pressure;BME280_temperature;BME280_humidity;BME280_pressure;Samples;Min_cycle;Max_cycle;Signal;HPM_P1;HPM_P2
2022/08/21 00:00:46;;;;;;;15.48;4.47;;;16.70;74.00;;;;;;5015433;28;20296;-73
2022/08/21 00:03:12;;;;;;;8.45;3.40;;;16.70;74.10;;;;;;5021945;28;20029;-73
2022/08/21 00:05:50;;;;;;;9.73;3.67;;;16.70;74.20;;;;;;5021004;28;20045;-73
2022/08/21 00:08:17;;;;;;;8.15;3.17;;;16.70;74.10;;;;;;5016559;28;20597;-73
2022/08/21 00:10:44;;;;;;;10.45;3.08;;;16.60;73.90;;;;;;5011732;28;20018;-73
2022/08/21 00:13:11;;;;;;;10.57;3.22;;;16.60;74.10;;;;;;5023823;28;20041;-73
2022/08/21 00:15:37;;;;;;;9.88;3.38;;;16.70;74.20;;;;;;5019524;28;20061;-73
2022/08/21 00:18:04;;;;;;;9.38;3.17;;;16.60;74.30;;;;;;5012593;28;20038;-73
2022/08/21 00:20:31;;;;;;;11.57;3.05;;;16.60;74.30;;;;;;5009359;28;20112;-73
2022/08/21 00:22:57;;;;;;;9.02;3.08;;;16.60;74.40;;;;;;5016948;28;20026;-72
2022/08/21 00:25:22;;;;;;;8.88;2.70;;;16.60;74.70;;;;;;5014422;28;20377;-73
2022/08/21 00:27:49;;;;;;;9.13;2.90;;;16.60;74.70;;;;;;5014811;28;20034;-72
2022/08/21 00:30:16;;;;;;;8.70;3.03;;;16.50;74.70;;;;;;5015792;28;20034;-73
2022/08/21 00:32:42;;;;;;;12.75;3.42;;;16.50;74.90;;;;;;5012045;28;20029;-73
2022/08/21 00:35:11;;;;;;;8.35;3.03;;;16.50;75.10;;;;;;5008571;28;20045;-72
2022/08/21 00:37:39;;;;;;;10.02;3.25;;;16.50;75.10;;;;;;5010294;28;20038;-72
2022/08/21 00:40:08;;;;;;;8.73;2.90;;;16.50;75.20;;;;;;5016293;28;20359;-73
2022/08/21 00:42:34;;;;;;;7.88;2.70;;;16.50;75.30;;;;;;5012060;28;20037;-73
2022/08/21 00:45:00;;;;;;;11.80;3.00;;;16.50;75.30;;;;;;5011460;28;20034;-72
2022/08/21 00:47:25;;;;;;;8.32;2.50;;;16.40;75.30;;;;;;5018206;28;20064;-73
2022/08/21 00:49:51;;;;;;;9.68;3.10;;;16.40;75.40;;;;;;5012968;28;20045;-72
2022/08/21 00:52:24;;;;;;;14.43;3.42;;;16.40;75.40;;;;;;5004991;28;20041;-72
2022/08/21 00:54:51;;;;;;;9.23;2.72;;;16.40;75.50;;;;;;5009491;28;20034;-72
2022/08/21 00:57:25;;;;;;;6.53;2.78;;;16.40;75.30;;;;;;5023292;28;20377;-72
2022/08/21 00:59:55;;;;;;;9.13;3.53;;;16.30;75.50;;;;;;5015689;28;20113;-73
2022/08/21 01:02:21;;;;;;;11.80;3.15;;;16.30;75.50;;;;;;5014202;28;20080;-73
2022/08/21 01:04:47;;;;;;;9.35;2.63;;;16.20;75.50;;;;;;5019206;28;20062;-73
2022/08/21 01:07:13;;;;;;;7.15;2.83;;;16.20;75.80;;;;;;5011253;28;20021;-73
2022/08/21 01:09:40;;;;;;;10.57;2.95;;;16.20;75.80;;;;;;5011424;28;20041;-74
2022/08/21 01:12:06;;;;;;;9.70;2.80;;;16.10;75.90;;;;;;5005730;28;20038;-73
2022/08/21 01:14:32;;;;;;;10.32;3.20;;;16.10;76.00;;;;;;5007794;28;20117;-74
2022/08/21 01:16:59;;;;;;;7.95;3.20;;;16.10;76.00;;;;;;5004292;28;20116;-73
2022/08/21 01:19:25;;;;;;;9.18;2.80;;;16.10;76.30;;;;;;5018156;28;20026;-73
2022/08/21 01:21:51;;;;;;;8.88;2.92;;;16.10;76.30;;;;;;5040395;28;20096;-73
2022/08/21 01:24:18;;;;;;;10.00;3.17;;;16.10;76.50;;;;;;5018771;28;20431;-72
2022/08/21 01:26:44;;;;;;;8.38;2.58;;;16.10;76.60;;;;;;5012572;28;20034;-73
2022/08/21 01:29:36;;;;;;;9.32;2.85;;;16.00;76.60;;;;;;5011355;28;20037;-73
2022/08/21 01:32:13;;;;;;;13.55;3.50;;;16.00;76.70;;;;;;5007669;28;20525;-75
2022/08/21 01:34:42;;;;;;;9.43;3.47;;;16.00;76.80;;;;;;5014011;28;20065;-74
2022/08/21 01:37:08;;;;;;;9.23;3.38;;;15.90;76.70;;;;;;5012279;28;20045;-73
2022/08/21 01:39:34;;;;;;;8.57;3.28;;;15.90;76.70;;;;;;5017605;28;20262;-73
2022/08/21 01:41:59;;;;;;;8.80;3.30;;;15.90;76.90;;;;;;5021714;28;20308;-73
2022/08/21 01:44:26;;;;;;;12.45;3.47;;;15.90;77.20;;;;;;5011796;28;20048;-72
2022/08/21 01:46:52;;;;;;;10.00;3.67;;;15.90;77.50;;;;;;5008616;28;20401;-73
2022/08/21 01:49:18;;;;;;;8.80;3.30;;;15.90;77.50;;;;;;5016883;28;20122;-73
2022/08/21 01:51:44;;;;;;;9.13;3.30;;;15.90;77.60;;;;;;5018420;28;20046;-73
2022/08/21 01:54:10;;;;;;;8.57;3.38;;;15.80;77.50;;;;;;5009069;28;20128;-73
2022/08/21 01:56:42;;;;;;;9.55;3.50;;;15.80;77.60;;;;;;5018877;28;20041;-73
2022/08/21 01:59:08;;;;;;;8.32;3.35;;;15.70;77.70;;;;;;5009513;28;20037;-73
2022/08/21 02:01:34;;;;;;;8.32;3.25;;;15.70;77.80;;;;;;5010328;28;20048;-73
2022/08/21 02:04:00;;;;;;;7.97;3.30;;;15.60;77.90;;;;;;5013114;28;20046;-73
2022/08/21 02:06:26;;;;;;;8.63;3.40;;;15.60;78.10;;;;;;5020792;28;20029;-73
2022/08/21 02:08:52;;;;;;;8.57;3.58;;;15.60;78.20;;;;;;5008003;28;20485;-73
2022/08/21 02:11:18;;;;;;;8.32;3.10;;;15.60;78.30;;;;;;5018817;28;20037;-73
2022/08/21 02:13:43;;;;;;;8.05;3.38;;;15.60;78.50;;;;;;5016042;28;20120;-73
2022/08/21 02:16:11;;;;;;;8.85;3.50;;;15.60;78.50;;;;;;5011311;28;20449;-74
2022/08/21 02:18:37;;;;;;;9.00;3.40;;;15.60;78.70;;;;;;5014458;28;20488;-73
2022/08/21 02:21:04;;;;;;;7.10;2.97;;;15.60;78.70;;;;;;5007726;28;20112;-73
2022/08/21 02:23:30;;;;;;;11.43;3.47;;;15.60;78.70;;;;;;5019213;28;20037;-74
2022/08/21 02:26:01;;;;;;;8.82;3.60;;;15.60;78.70;;;;;;5007424;28;20093;-73
2022/08/21 02:28:27;;;;;;;10.90;3.65;;;15.60;78.60;;;;;;5017958;28;20043;-73
2022/08/21 02:30:55;;;;;;;10.00;3.38;;;15.60;78.80;;;;;;5012692;28;20033;-73
2022/08/21 02:33:21;;;;;;;9.63;3.17;;;15.60;78.70;;;;;;5009219;28;20535;-73
2022/08/21 02:35:48;;;;;;;9.75;3.55;;;15.60;78.70;;;;;;5008306;28;20069;-73
2022/08/21 02:38:20;;;;;;;10.20;3.70;;;15.60;78.70;;;;;;5010559;28;20025;-73
2022/08/21 02:40:48;;;;;;;8.52;3.53;;;15.60;78.90;;;;;;5018087;28;20044;-75
2022/08/21 02:43:16;;;;;;;10.77;3.75;;;15.50;79.00;;;;;;5009350;28;20132;-73
2022/08/21 02:45:43;;;;;;;11.75;3.70;;;15.60;79.20;;;;;;5010058;28;20138;-75
2022/08/21 02:48:13;;;;;;;10.90;3.78;;;15.40;79.30;;;;;;5019914;28;20021;-73
2022/08/21 02:50:42;;;;;;;12.15;4.30;;;15.50;79.30;;;;;;5022445;28;20067;-73
2022/08/21 02:53:10;;;;;;;13.45;4.00;;;15.50;79.20;;;;;;5014334;28;20083;-74
2022/08/21 02:55:37;;;;;;;10.73;3.67;;;15.50;79.20;;;;;;5015258;28;20382;-74
2022/08/21 02:58:05;;;;;;;11.90;4.43;;;15.40;79.30;;;;;;5017513;28;20470;-74
2022/08/21 03:00:31;;;;;;;10.40;3.83;;;15.40;79.40;;;;;;5018426;28;20030;-73
2022/08/21 03:02:58;;;;;;;9.82;3.78;;;15.40;79.60;;;;;;5012409;28;20052;-73
2022/08/21 03:05:25;;;;;;;9.85;3.80;;;15.40;79.60;;;;;;5012513;28;20437;-73
2022/08/21 03:07:52;;;;;;;9.70;3.63;;;15.40;79.80;;;;;;5021836;28;20040;-74
2022/08/21 03:10:19;;;;;;;11.35;3.70;;;15.40;79.70;;;;;;5005910;28;20154;-73
2022/08/21 03:12:46;;;;;;;11.10;3.95;;;15.40;79.70;;;;;;5023344;28;20059;-74
2022/08/21 03:15:14;;;;;;;15.50;5.10;;;15.40;79.90;;;;;;5022214;28;20038;-73
2022/08/21 03:17:40;;;;;;;10.25;4.00;;;15.40;79.90;;;;;;5011551;28;20048;-73
2022/08/21 03:20:07;;;;;;;10.38;3.97;;;15.40;79.80;;;;;;5016722;28;20474;-73
2022/08/21 03:22:33;;;;;;;13.20;4.22;;;15.40;79.90;;;;;;5049766;28;20420;-73
2022/08/21 03:24:59;;;;;;;11.27;3.70;;;15.40;79.70;;;;;;5019201;28;20049;-73
2022/08/21 03:27:26;;;;;;;13.30;4.07;;;15.30;79.90;;;;;;5019346;28;20045;-72
2022/08/21 03:29:53;;;;;;;10.02;4.13;;;15.40;80.00;;;;;;5010410;28;20409;-72
2022/08/21 03:32:19;;;;;;;11.52;4.07;;;15.40;79.90;;;;;;5014347;28;20109;-73
2022/08/21 03:34:45;;;;;;;12.63;3.90;;;15.40;79.90;;;;;;5009426;28;20052;-73
2022/08/21 03:37:11;;;;;;;11.68;3.97;;;15.30;79.90;;;;;;5015743;28;20025;-73
2022/08/21 03:39:37;;;;;;;10.48;4.28;;;15.30;79.80;;;;;;5015699;28;20029;-73
2022/08/21 03:42:02;;;;;;;9.07;3.60;;;15.30;79.80;;;;;;5021325;28;20583;-75
2022/08/21 03:44:28;;;;;;;11.98;4.22;;;15.30;80.00;;;;;;5022763;28;20413;-73
2022/08/21 03:46:55;;;;;;;10.85;3.75;;;15.30;80.00;;;;;;5013818;28;20378;-73
2022/08/21 03:49:21;;;;;;;8.57;4.15;;;15.20;80.10;;;;;;5011928;28;20052;-73
2022/08/21 03:51:47;;;;;;;12.18;4.38;;;15.10;80.20;;;;;;5014721;28;20026;-73
2022/08/21 03:54:12;;;;;;;9.93;4.40;;;15.20;80.50;;;;;;5009208;28;20462;-73
2022/08/21 03:56:39;;;;;;;12.02;4.40;;;15.10;80.50;;;;;;5018767;28;20029;-73
2022/08/21 03:59:05;;;;;;;14.45;4.20;;;15.10;80.70;;;;;;5017057;28;20045;-73
2022/08/21 04:01:31;;;;;;;11.15;4.10;;;15.10;80.80;;;;;;5020494;28;20163;-73
2022/08/21 04:03:57;;;;;;;12.20;4.40;;;15.10;80.90;;;;;;5009795;28;20041;-73
2022/08/21 04:06:22;;;;;;;12.43;4.18;;;15.10;80.90;;;;;;5008376;28;20030;-75
2022/08/21 04:08:48;;;;;;;12.95;4.25;;;15.00;81.20;;;;;;5014305;28;20025;-73
2022/08/21 04:11:14;;;;;;;10.60;3.70;;;15.00;81.30;;;;;;5015921;28;20346;-73
2022/08/21 04:13:40;;;;;;;12.52;4.13;;;15.00;81.20;;;;;;5013328;28;20112;-73
2022/08/21 04:16:06;;;;;;;10.63;4.13;;;15.00;81.30;;;;;;5013109;28;20030;-74
2022/08/21 04:18:32;;;;;;;9.43;4.30;;;15.00;81.30;;;;;;5018773;28;20018;-72
2022/08/21 04:20:59;;;;;;;12.77;4.15;;;15.10;81.20;;;;;;5008474;28;20124;-73
2022/08/21 04:23:25;;;;;;;13.73;4.65;;;15.10;81.10;;;;;;5012896;28;20037;-73
2022/08/21 04:25:53;;;;;;;10.77;3.97;;;15.00;81.10;;;;;;5010845;28;20542;-72
2022/08/21 04:28:19;;;;;;;11.43;4.60;;;15.00;81.30;;;;;;5008573;28;20029;-73
2022/08/21 04:30:45;;;;;;;10.75;4.50;;;15.00;81.20;;;;;;5015511;28;20034;-73
2022/08/21 04:33:11;;;;;;;9.25;4.03;;;15.00;81.30;;;;;;5018757;28;20032;-74
2022/08/21 04:35:36;;;;;;;9.25;4.10;;;15.00;81.30;;;;;;5010519;28;20030;-75
2022/08/21 04:38:02;;;;;;;9.18;4.03;;;15.00;81.40;;;;;;5015565;28;20133;-73
2022/08/21 04:40:28;;;;;;;14.00;5.05;;;15.00;81.50;;;;;;5022010;28;20049;-73
2022/08/21 04:42:59;;;;;;;13.43;4.40;;;15.00;81.50;;;;;;5018276;28;20036;-72
2022/08/21 04:45:38;;;;;;;12.65;4.88;;;15.00;81.40;;;;;;5004956;28;20038;-74
2022/08/21 04:48:07;;;;;;;12.98;5.20;;;15.00;81.60;;;;;;5015120;28;20541;-72
2022/08/21 04:50:38;;;;;;;11.50;4.68;;;14.90;81.50;;;;;;5020636;28;20030;-72
2022/08/21 04:53:11;;;;;;;14.15;5.50;;;14.90;81.70;;;;;;5010561;28;20099;-73
2022/08/21 04:55:38;;;;;;;14.05;5.18;;;14.90;81.80;;;;;;5011032;28;20070;-73
2022/08/21 04:58:06;;;;;;;11.18;5.18;;;14.90;81.80;;;;;;5009953;28;20042;-73
2022/08/21 05:00:32;;;;;;;13.52;5.05;;;15.00;81.60;;;;;;5016463;28;20037;-72
2022/08/21 05:02:59;;;;;;;13.88;5.30;;;15.00;81.60;;;;;;5014941;28;20482;-74
2022/08/21 05:05:28;;;;;;;12.52;4.95;;;15.00;81.80;;;;;;5006442;28;20062;-74
2022/08/21 05:07:56;;;;;;;12.02;5.13;;;15.00;81.70;;;;;;5012943;28;20022;-74
2022/08/21 05:10:22;;;;;;;14.20;5.40;;;15.00;82.00;;;;;;5014160;28;20041;-73
2022/08/21 05:12:48;;;;;;;15.15;4.75;;;15.00;81.80;;;;;;5015383;28;20037;-73
2022/08/21 05:15:14;;;;;;;11.18;4.70;;;15.10;81.50;;;;;;5020080;28;20038;-73
2022/08/21 05:17:41;;;;;;;14.98;5.30;;;15.10;81.70;;;;;;5012520;28;20507;-74
2022/08/21 05:20:08;;;;;;;10.70;4.22;;;15.10;81.50;;;;;;5013592;28;20084;-74
2022/08/21 05:22:34;;;;;;;12.48;5.28;;;15.10;81.60;;;;;;5010706;28;20022;-73
2022/08/21 05:24:59;;;;;;;13.60;5.03;;;15.20;81.80;;;;;;5021571;28;20044;-74
2022/08/21 05:27:25;;;;;;;12.73;5.22;;;15.20;81.80;;;;;;5012702;28;20042;-73
2022/08/21 05:29:50;;;;;;;13.55;5.38;;;15.20;81.90;;;;;;5018084;28;20117;-73
2022/08/21 05:32:17;;;;;;;17.02;5.47;;;15.20;81.80;;;;;;5015503;28;20026;-73
2022/08/21 05:34:43;;;;;;;13.75;4.88;;;15.30;82.00;;;;;;5020272;28;20368;-73
2022/08/21 05:37:11;;;;;;;13.88;4.57;;;15.30;82.00;;;;;;5013393;28;20041;-73
2022/08/21 05:39:37;;;;;;;17.23;5.47;;;15.40;81.90;;;;;;5006301;28;20033;-73
2022/08/21 05:42:03;;;;;;;11.77;4.75;;;15.40;81.80;;;;;;5011442;28;20034;-73
2022/08/21 05:44:28;;;;;;;11.82;4.85;;;15.50;81.50;;;;;;5016412;28;20030;-74
2022/08/21 05:46:54;;;;;;;12.77;5.03;;;15.50;81.70;;;;;;5013928;28;20462;-73
2022/08/21 05:49:20;;;;;;;13.02;5.25;;;15.60;81.60;;;;;;5008569;28;20037;-74
2022/08/21 05:51:45;;;;;;;11.88;4.95;;;15.70;81.40;;;;;;5018058;28;20049;-73
2022/08/21 05:54:11;;;;;;;10.85;4.13;;;15.80;81.30;;;;;;5014717;28;20493;-73
2022/08/21 05:56:37;;;;;;;15.38;5.32;;;15.80;81.00;;;;;;5014203;28;20026;-73
2022/08/21 05:59:03;;;;;;;17.65;5.00;;;15.90;81.20;;;;;;5011910;28;20377;-73
2022/08/21 06:01:29;;;;;;;19.05;5.65;;;15.90;81.20;;;;;;5011321;28;20033;-73
2022/08/21 06:03:54;;;;;;;12.40;4.88;;;15.90;81.10;;;;;;5019000;28;20021;-73
2022/08/21 06:06:20;;;;;;;12.77;4.68;;;16.00;81.00;;;;;;5015885;28;20030;-73
2022/08/21 06:08:46;;;;;;;12.68;5.25;;;16.10;80.80;;;;;;5010967;28;20034;-73
2022/08/21 06:11:11;;;;;;;14.30;5.00;;;16.10;80.80;;;;;;5011580;28;20081;-74
2022/08/21 06:13:38;;;;;;;16.70;5.18;;;16.10;81.00;;;;;;5002720;28;20431;-74
2022/08/21 06:16:13;;;;;;;15.52;4.65;;;16.30;80.50;;;;;;5013607;28;20466;-73
2022/08/21 06:18:39;;;;;;;12.77;5.10;;;16.30;80.50;;;;;;5013862;28;20071;-74
2022/08/21 06:21:06;;;;;;;17.10;5.78;;;16.40;80.30;;;;;;5008869;28;20037;-73
2022/08/21 06:23:33;;;;;;;14.45;4.97;;;16.50;80.00;;;;;;5015336;28;20079;-73
2022/08/21 06:26:00;;;;;;;12.88;4.95;;;16.60;79.80;;;;;;5008118;28;20116;-73
2022/08/21 06:28:26;;;;;;;11.40;4.70;;;16.70;79.90;;;;;;5016676;28;20088;-73
2022/08/21 06:30:52;;;;;;;13.88;5.18;;;16.80;79.40;;;;;;5015053;28;20517;-73
2022/08/21 06:33:17;;;;;;;15.05;5.13;;;16.90;79.50;;;;;;5004757;28;20049;-74
2022/08/21 06:35:43;;;;;;;12.50;5.03;;;17.10;79.40;;;;;;5017148;28;20022;-73
2022/08/21 06:38:09;;;;;;;12.73;4.97;;;17.20;79.20;;;;;;5011216;28;20033;-74
2022/08/21 06:40:35;;;;;;;12.93;5.03;;;17.40;78.70;;;;;;5019024;28;20045;-73
2022/08/21 06:43:12;;;;;;;14.52;4.70;;;17.60;78.10;;;;;;5006419;28;20500;-74
2022/08/21 06:45:38;;;;;;;11.98;4.60;;;17.80;77.60;;;;;;5011840;28;20029;-75
2022/08/21 06:48:05;;;;;;;14.43;5.07;;;18.00;77.30;;;;;;5015116;28;20033;-73
2022/08/21 06:50:31;;;;;;;14.93;5.05;;;18.20;76.70;;;;;;5013970;28;20370;-73
2022/08/21 06:53:08;;;;;;;13.35;4.57;;;18.50;76.20;;;;;;5006525;28;20438;-73
2022/08/21 06:55:34;;;;;;;14.20;4.40;;;18.60;75.40;;;;;;5009155;28;20038;-76
2022/08/21 06:58:00;;;;;;;11.90;4.57;;;18.80;75.30;;;;;;5007547;28;20033;-73
2022/08/21 07:00:26;;;;;;;14.10;4.93;;;19.00;75.00;;;;;;5009463;28;20048;-73
2022/08/21 07:02:51;;;;;;;11.02;4.72;;;19.20;74.50;;;;;;5016651;28;20042;-73
2022/08/21 07:05:17;;;;;;;13.75;4.88;;;19.50;73.70;;;;;;5017949;28;20026;-74
2022/08/21 07:07:43;;;;;;;13.68;4.85;;;19.70;72.60;;;;;;5010546;28;20084;-74
2022/08/21 07:10:09;;;;;;;15.43;4.30;;;19.90;72.40;;;;;;5018024;28;20362;-74
2022/08/21 07:12:34;;;;;;;11.23;4.82;;;19.80;71.80;;;;;;5014171;28;20045;-73
2022/08/21 07:15:00;;;;;;;11.00;3.75;;;19.90;72.50;;;;;;5024411;28;20036;-73
2022/08/21 07:17:26;;;;;;;13.18;3.88;;;19.90;72.10;;;;;;5005242;28;20447;-73
2022/08/21 07:19:51;;;;;;;13.00;4.13;;;19.90;72.30;;;;;;5029405;28;20034;-74
2022/08/21 07:22:20;;;;;;;9.82;3.90;;;19.90;72.00;;;;;;5010724;28;20428;-75
2022/08/21 07:24:46;;;;;;;16.02;4.53;;;19.80;72.60;;;;;;5009529;28;20149;-74
2022/08/21 07:27:12;;;;;;;14.40;3.83;;;19.70;72.30;;;;;;5014513;28;20068;-74
2022/08/21 07:29:37;;;;;;;11.05;3.53;;;19.80;72.60;;;;;;5013429;28;20466;-76
2022/08/21 07:32:04;;;;;;;12.75;3.72;;;20.00;72.20;;;;;;5020094;28;20441;-73
2022/08/21 07:34:30;;;;;;;13.75;3.60;;;20.30;71.50;;;;;;5024031;28;20039;-74
2022/08/21 07:36:57;;;;;;;18.40;4.22;;;20.50;70.90;;;;;;5023763;28;20419;-74
2022/08/21 07:39:22;;;;;;;10.70;3.70;;;20.60;70.70;;;;;;5011482;28;20033;-74
2022/08/21 07:41:48;;;;;;;15.88;4.60;;;20.90;70.10;;;;;;5027000;28;20377;-74
2022/08/21 07:44:13;;;;;;;17.30;4.57;;;20.80;69.10;;;;;;5019399;28;20133;-74
2022/08/21 07:46:39;;;;;;;12.75;4.38;;;20.90;68.90;;;;;;5017578;28;20045;-73
2022/08/21 07:49:05;;;;;;;14.68;4.53;;;21.10;68.80;;;;;;5024327;28;20025;-73
2022/08/21 07:51:33;;;;;;;13.20;4.28;;;20.90;68.80;;;;;;5014984;28;20127;-74
2022/08/21 07:53:59;;;;;;;13.13;4.28;;;21.00;68.90;;;;;;5025822;28;20037;-74
2022/08/21 07:56:25;;;;;;;12.35;3.85;;;21.00;68.10;;;;;;5009065;28;20026;-73
2022/08/21 07:58:50;;;;;;;17.20;4.95;;;21.20;68.00;;;;;;5012889;28;20080;-73
2022/08/21 08:01:17;;;;;;;16.67;4.70;;;21.30;67.40;;;;;;5022153;28;20033;-74
2022/08/21 08:03:42;;;;;;;16.13;4.55;;;21.40;67.50;;;;;;5007652;28;20034;-75
2022/08/21 08:06:11;;;;;;;15.48;4.38;;;21.10;68.10;;;;;;5017229;28;20111;-74
2022/08/21 08:08:39;;;;;;;14.70;3.95;;;21.10;69.10;;;;;;5012156;28;20030;-74
2022/08/21 08:11:04;;;;;;;14.50;4.20;;;21.40;67.40;;;;;;5008812;28;20049;-74
2022/08/21 08:13:30;;;;;;;13.95;4.18;;;21.70;66.70;;;;;;5017492;28;20068;-74
2022/08/21 08:15:56;;;;;;;10.38;3.67;;;22.00;65.30;;;;;;5044071;28;20034;-74
2022/08/21 08:18:22;;;;;;;17.17;3.58;;;22.00;65.20;;;;;;5018202;28;20461;-74
2022/08/21 08:20:47;;;;;;;11.35;3.85;;;21.80;66.20;;;;;;5012217;28;20382;-74
2022/08/21 08:23:14;;;;;;;11.02;2.90;;;22.10;64.90;;;;;;5016156;28;20128;-73
2022/08/21 08:25:41;;;;;;;11.95;3.63;;;22.20;63.90;;;;;;5017614;28;20046;-72
2022/08/21 08:28:06;;;;;;;13.40;3.10;;;22.60;62.90;;;;;;5021514;28;20080;-72
2022/08/21 08:30:32;;;;;;;13.95;3.25;;;22.40;62.40;;;;;;5010175;28;20065;-73
2022/08/21 08:32:59;;;;;;;13.25;3.28;;;22.20;62.80;;;;;;5017834;28;20124;-72
2022/08/21 08:35:25;;;;;;;9.18;2.72;;;22.30;62.50;;;;;;5018987;28;20052;-72
2022/08/21 08:37:51;;;;;;;11.57;2.70;;;22.60;61.60;;;;;;5013145;28;20088;-72
2022/08/21 08:40:45;;;;;;;12.07;3.25;;;22.60;61.70;;;;;;5019096;28;20034;-73
2022/08/21 08:43:13;;;;;;;11.30;3.07;;;22.60;62.60;;;;;;4996104;28;20462;-72
2022/08/21 08:45:42;;;;;;;11.15;2.47;;;22.50;62.40;;;;;;5017504;28;20312;-72
2022/08/21 08:48:12;;;;;;;9.30;2.70;;;22.80;62.30;;;;;;5012777;28;20386;-72
2022/08/21 08:50:47;;;;;;;11.70;3.10;;;23.30;59.50;;;;;;5015935;28;20026;-73
2022/08/21 08:53:21;;;;;;;10.68;2.58;;;23.60;59.00;;;;;;5013564;28;20029;-73
2022/08/21 08:55:50;;;;;;;11.20;3.17;;;23.80;58.30;;;;;;5021130;28;20026;-73
2022/08/21 08:58:24;;;;;;;10.45;2.38;;;23.90;57.60;;;;;;5008650;28;20033;-73
2022/08/21 09:00:53;;;;;;;9.45;2.38;;;24.00;57.40;;;;;;5022270;28;20104;-73
2022/08/21 09:03:20;;;;;;;10.05;2.72;;;24.10;57.50;;;;;;5012623;28;20065;-75
2022/08/21 09:05:57;;;;;;;12.27;2.97;;;24.20;56.80;;;;;;5021343;28;20040;-73
2022/08/21 09:08:44;;;;;;;9.60;2.42;;;24.10;56.00;;;;;;5008900;28;20385;-73
2022/08/21 09:11:30;;;;;;;10.88;2.80;;;24.10;56.10;;;;;;5009822;28;20385;-74
2022/08/21 09:14:12;;;;;;;9.30;2.28;;;23.90;57.40;;;;;;5019446;28;20163;-73
2022/08/21 09:16:37;;;;;;;9.52;2.30;;;24.30;55.80;;;;;;5016553;28;20155;-74
2022/08/21 09:19:41;;;;;;;9.98;2.30;;;24.40;54.70;;;;;;5007328;28;20117;-73
2022/08/21 09:22:27;;;;;;;11.25;2.17;;;24.50;54.30;;;;;;5016427;28;20091;-73
2022/08/21 09:24:56;;;;;;;9.93;2.75;;;24.40;53.50;;;;;;5018573;28;20033;-73
2022/08/21 09:27:22;;;;;;;12.40;2.60;;;24.10;54.70;;;;;;5020485;28;20038;-73
2022/08/21 09:29:52;;;;;;;11.50;2.58;;;24.20;54.80;;;;;;5019994;28;20489;-73
2022/08/21 09:32:30;;;;;;;9.82;2.05;;;23.90;55.40;;;;;;5021564;28;20033;-73
2022/08/21 09:35:20;;;;;;;8.88;2.13;;;23.80;54.40;;;;;;5009043;28;20474;-73
2022/08/21 09:38:00;;;;;;;9.02;2.10;;;23.40;53.90;;;;;;5015697;28;20033;-73
2022/08/21 09:40:35;;;;;;;9.80;2.15;;;23.50;53.70;;;;;;5011470;28;20037;-73
2022/08/21 09:43:13;;;;;;;12.23;2.65;;;23.70;53.50;;;;;;5014269;28;20041;-74
2022/08/21 09:45:41;;;;;;;11.32;2.42;;;23.80;53.70;;;;;;5011301;28;20540;-73
2022/08/21 09:48:19;;;;;;;7.75;2.15;;;23.90;53.40;;;;;;5016084;28;20144;-73
2022/08/21 09:50:47;;;;;;;10.35;2.53;;;24.30;52.70;;;;;;5018452;28;20377;-73
2022/08/21 09:53:29;;;;;;;9.15;2.47;;;24.50;51.90;;;;;;5000078;28;20121;-73
2022/08/21 09:59:26;;;;;;;11.85;2.58;;;24.90;49.90;;;;;;5013144;28;20056;-73
2022/08/21 10:01:53;;;;;;;9.55;2.13;;;25.20;48.30;;;;;;5015991;28;20044;-73
2022/08/21 10:04:35;;;;;;;10.35;2.55;;;24.80;48.80;;;;;;5015528;28;20049;-73
2022/08/21 10:07:13;;;;;;;12.65;2.42;;;24.80;49.70;;;;;;5016537;28;20041;-75
2022/08/21 10:09:39;;;;;;;9.32;2.58;;;24.60;49.40;;;;;;5014381;28;20111;-73
2022/08/21 10:12:08;;;;;;;9.60;2.42;;;24.80;49.40;;;;;;5008476;28;20065;-73
2022/08/21 10:15:09;;;;;;;10.05;2.60;;;24.90;49.80;;;;;;5005252;28;20041;-75
2022/08/21 10:17:46;;;;;;;13.38;2.70;;;25.00;50.20;;;;;;5006072;28;20053;-73
2022/08/21 10:20:20;;;;;;;12.32;2.75;;;25.60;47.60;;;;;;5017378;28;20029;-73
2022/08/21 10:23:09;;;;;;;;;;;25.50;47.30;;;;;;5043978;28;20421;-73
2022/08/21 10:25:50;;;;;;;8.52;2.30;;;25.50;48.50;;;;;;5010413;28;19968;-73
2022/08/21 10:28:36;;;;;;;11.98;2.47;;;25.60;48.30;;;;;;5004844;28;20104;-73
2022/08/21 10:31:34;;;;;;;8.98;2.42;;;25.80;46.40;;;;;;5008653;28;20112;-74
2022/08/21 10:34:18;;;;;;;11.82;3.05;;;25.60;47.70;;;;;;5013524;28;20135;-73
2022/08/21 10:37:21;;;;;;;8.90;2.30;;;25.50;48.60;;;;;;5010125;28;20529;-73
2022/08/21 10:40:08;;;;;;;10.52;2.92;;;25.40;49.20;;;;;;5007944;28;20030;-73
2022/08/21 10:42:40;;;;;;;10.88;2.92;;;25.30;49.30;;;;;;5004608;28;20029;-76
2022/08/21 10:45:22;;;;;;;12.50;3.20;;;25.20;49.60;;;;;;5006660;28;20148;-74
2022/08/21 10:47:53;;;;;;;12.57;2.50;;;25.40;49.40;;;;;;5001090;28;20065;-73
2022/08/21 10:50:44;;;;;;;11.95;2.58;;;25.80;49.30;;;;;;5006651;28;20021;-73
2022/08/21 10:53:22;;;;;;;11.85;2.90;;;25.70;49.20;;;;;;5019082;28;20373;-74
2022/08/21 10:56:04;;;;;;;11.65;2.75;;;25.60;50.00;;;;;;5009734;28;20040;-72
2022/08/21 10:58:56;;;;;;;12.48;2.83;;;25.40;50.20;;;;;;4998529;28;20030;-72
2022/08/21 11:01:29;;;;;;;14.18;3.28;;;24.90;51.70;;;;;;4983475;28;20046;-73
2022/08/21 11:04:04;;;;;;;12.40;3.30;;;24.40;51.70;;;;;;5007399;28;20038;-73
2022/08/21 11:06:32;;;;;;;10.15;2.60;;;24.30;52.60;;;;;;5046755;28;20292;-74
2022/08/21 11:09:19;;;;;;;9.27;2.80;;;24.30;53.10;;;;;;5014342;28;20057;-73
2022/08/21 11:11:55;;;;;;;12.05;2.80;;;24.70;52.10;;;;;;5005524;28;20157;-74
2022/08/21 11:14:33;;;;;;;11.75;2.63;;;25.50;50.30;;;;;;5016817;28;20072;-73
2022/08/21 11:17:09;;;;;;;9.48;3.10;;;25.30;50.10;;;;;;5041419;28;20096;-74
2022/08/21 11:19:44;;;;;;;11.00;2.65;;;25.10;51.70;;;;;;5013425;28;20065;-74
2022/08/21 11:22:35;;;;;;;10.98;2.60;;;24.70;52.10;;;;;;5007129;28;20080;-74
2022/08/21 11:25:03;;;;;;;10.95;2.50;;;24.50;52.30;;;;;;5021679;28;20136;-74
2022/08/21 11:27:36;;;;;;;11.57;2.65;;;24.60;52.60;;;;;;5019354;28;20029;-73
2022/08/21 11:30:03;;;;;;;11.40;2.75;;;25.10;51.70;;;;;;5018337;28;20385;-74
2022/08/21 11:32:37;;;;;;;13.15;3.00;;;25.50;50.00;;;;;;5009514;28;20054;-73
2022/08/21 11:35:25;;;;;;;11.63;2.97;;;25.50;50.70;;;;;;5021108;28;20141;-74
2022/08/21 11:38:03;;;;;;;8.60;2.47;;;25.50;50.10;;;;;;5015172;28;20072;-75
2022/08/21 11:40:48;;;;;;;10.68;3.20;;;25.80;49.50;;;;;;5015930;28;20030;-73
2022/08/21 11:43:48;;;;;;;12.95;2.85;;;25.60;49.90;;;;;;5015574;28;20042;-74
2022/08/21 11:46:35;;;;;;;10.10;2.95;;;25.50;49.80;;;;;;5011169;28;20165;-74
2022/08/21 11:49:22;;;;;;;7.80;2.75;;;25.00;51.40;;;;;;5004477;28;20100;-73
2022/08/21 11:51:59;;;;;;;11.57;2.95;;;24.60;52.30;;;;;;5014119;28;20386;-73
2022/08/21 11:54:41;;;;;;;9.95;3.13;;;24.40;53.00;;;;;;5019272;28;20068;-74
2022/08/21 11:57:24;;;;;;;14.52;3.05;;;24.40;53.20;;;;;;5026223;28;20141;-74
2022/08/21 12:00:10;;;;;;;12.23;2.85;;;24.40;53.40;;;;;;5007735;28;20034;-74
2022/08/21 12:02:43;;;;;;;12.02;2.97;;;24.50;53.80;;;;;;5044693;28;20038;-73
2022/08/21 12:05:22;;;;;;;11.45;2.95;;;24.60;52.40;;;;;;5005902;28;20048;-75
2022/08/21 12:07:59;;;;;;;13.38;3.60;;;24.80;52.50;;;;;;5004721;28;20022;-74
2022/08/21 12:10:32;;;;;;;11.18;3.08;;;24.90;52.50;;;;;;5020165;28;20517;-74
2022/08/21 12:13:11;;;;;;;10.48;2.65;;;25.00;51.40;;;;;;5021731;28;20041;-73
2022/08/21 12:15:37;;;;;;;12.05;2.97;;;24.90;52.20;;;;;;5015349;28;20294;-74
2022/08/21 12:18:30;;;;;;;13.65;3.28;;;25.40;51.40;;;;;;5023716;28;20092;-75
2022/08/21 12:21:20;;;;;;;13.85;3.42;;;25.30;50.90;;;;;;5013615;28;20485;-77
2022/08/21 12:23:49;;;;;;;11.70;3.10;;;24.80;50.90;;;;;;5008499;28;20037;-74
2022/08/21 12:26:23;;;;;;;12.45;3.58;;;24.90;52.20;;;;;;5015633;28;20061;-74
2022/08/21 12:28:49;;;;;;;9.82;2.55;;;24.90;52.20;;;;;;5028761;28;20167;-74
2022/08/21 12:31:24;;;;;;;11.07;3.22;;;24.80;52.20;;;;;;5013069;28;20148;-74
2022/08/21 12:33:55;;;;;;;12.07;3.00;;;25.30;50.00;;;;;;5016409;28;20392;-74
2022/08/21 12:36:25;;;;;;;13.07;3.03;;;25.60;49.50;;;;;;5005228;28;20022;-75
2022/08/21 12:39:14;;;;;;;12.52;2.75;;;25.70;49.10;;;;;;5005497;28;20022;-74
2022/08/21 12:41:54;;;;;;;13.55;3.00;;;25.70;49.30;;;;;;5019243;28;20118;-74
2022/08/21 12:44:50;;;;;;;10.00;2.83;;;25.90;48.40;;;;;;5013368;28;20626;-73
2022/08/21 12:47:38;;;;;;;10.10;2.55;;;26.00;49.10;;;;;;5016704;28;20112;-73
2022/08/21 12:50:19;;;;;;;11.05;2.83;;;26.10;48.30;;;;;;5006258;28;20034;-73
2022/08/21 12:52:53;;;;;;;11.35;3.22;;;25.70;48.80;;;;;;5020824;28;20042;-73
2022/08/21 12:55:31;;;;;;;10.73;2.83;;;25.50;48.80;;;;;;5014534;28;20043;-73
2022/08/21 12:57:57;;;;;;;14.80;2.65;;;25.30;49.90;;;;;;5044930;28;20113;-73
2022/08/21 13:00:25;;;;;;;12.38;2.90;;;25.10;49.80;;;;;;5010572;28;20037;-74